Romney, Indiana
Current Conditions -  °F | °C
As of 7:54 PM on Saturday 22 Nov 2014 (Local Time) from KLAF Reporting Station
Overcast Overcast  
Wind Chill: 53°   Ceiling: 3500
Heat Index: 53°   Visibility: 10mi
Dew Point: 43°   Wind: 7mph
Humidity: 69%   Direction: 200°SSW
Pressure: 29.97"   Gusts: NA
Location:  40.25°N, 86.9°W
Report Text: KLAF 230054Z 20006KT 10SM OVC035 12/06 A2997 RMK AO2 SLP150 T01170061
Loading
Personal Weather Stations






























Interactive Weather Map New forecast layout! Learn more

10-Day Weather Forecast

Advertisements
Track Severe Weather on mobile